Liberty Pride — KRAU — position and weather

sailwx.info

Track history (hours):
 
Tides and Currents Weather Stations Pressure Air Temp Water Temp Dewpoint Dewpoint Depression Visibility Wind Speed Wind Dir Waves Ship Positions

Liberty Pride

Owner: Liberty Pride Corporation, Lake Success, NY. More information available from US FCC via Universal Licensing System and Coast Guard Vessel Documentation Center.

Last reported at 2015-Aug-01 21:34 UTC. Time now 2015-Aug-01 22:19 UTC.
Position N 40°54' W 071°35'.

Length 200 m; draft 9.3 m.

Type: Cargo ship. MMSI: 368473000.

Date/timePositionNaut miles runAvg speedWind from/ knotsBaromVisibWave heightAir tempDewpointWater temp
2015-Aug-01 21:34N 40°54' W 071°35'1515.1
2015-Aug-01 20:34N 41°07' W 071°27'1514.9
2015-Aug-01 19:34N 41°22' W 071°25'1111.4
2015-Aug-01 18:33N 41°33' W 071°20'1212.1
2015-Aug-01 17:33N 41°45' W 071°22'3 2.6
2015-Aug-01 16:31N 41°47' W 071°23'0 0.0
2015-Aug-01 15:28N 41°47' W 071°23'0 0.0
2015-Aug-01 14:31N 41°47' W 071°23'0 0.0
2015-Aug-01 13:25N 41°47' W 071°23'0 0.0
2015-Aug-01 12:31N 41°47' W 071°23'0 0.0
2015-Aug-01 11:31N 41°47' W 071°23'0 0.0
2015-Aug-01 10:31N 41°47' W 071°23'2 2.4
2015-Aug-01 09:33N 41°45' W 071°22'10 9.5
2015-Aug-01 08:33N 41°36' W 071°18'1212.4
2015-Aug-01 07:33N 41°24' W 071°22'9 9.4
2015-Aug-01 06:33N 41°15' W 071°22'1111.2
2015-Aug-01 05:33N 41°04' W 071°23'1010.4
2015-Aug-01 04:33N 40°56' W 071°32'1211.6
2015-Aug-01 03:33N 40°51' W 071°46'1212.1
2015-Aug-01 02:33N 40°46' W 072°00'1212.4
2015-Aug-01 01:33N 40°40' W 072°15'1212.2
2015-Aug-01 00:33N 40°35' W 072°29'1212.4
2015-Jul-31 23:33N 40°29' W 072°44'1212.2
2015-Jul-31 22:33N 40°24' W 072°58'1313.3
2015-Jul-31 21:33N 40°24' W 073°16'1515.4
2015-Jul-31 20:33N 40°25' W 073°36'1313.3
2015-Jul-31 19:33N 40°29' W 073°53'1313.0
2015-Jul-31 18:33N 40°39' W 074°04'4 4.0
2015-Jul-31 17:32N 40°41' W 074°08'0 0.3
2015-Jul-31 16:32N 40°41' W 074°08'0 0.0
2015-Jul-31 15:32N 40°41' W 074°08'0 0.0
2015-Jul-31 14:32N 40°41' W 074°08'0 0.0
2015-Jul-31 13:32N 40°41' W 074°08'0 0.0
2015-Jul-31 12:32N 40°41' W 074°08'0 0.0
2015-Jul-31 11:32N 40°41' W 074°08'0 0.0
2015-Jul-31 10:32N 40°41' W 074°08'1 0.6
2015-Jul-31 09:33N 40°41' W 074°08'4 4.1
2015-Jul-31 08:34N 40°39' W 074°03'1111.1
2015-Jul-31 07:34N 40°29' W 073°55'8 7.9
2015-Jul-31 06:33N 40°25' W 073°47'1413.9
2015-Jul-31 05:33N 40°11' W 073°45'1515.0
2015-Jul-31 04:33N 39°56' W 073°43'1514.8
2015-Jul-31 03:31N 39°41' W 073°42'1515.8
2015-Jul-31 02:33N 39°28' W 073°53'3815.9
2015-Jul-31 00:09N 38°57' W 074°22'1016.2
2015-Jul-30 23:32N 38°50' W 074°30'1414.4
2015-Jul-30 22:33N 38°45' W 074°47'1312.9
2015-Jul-30 21:33N 38°49' W 075°03'1211.6
2015-Jul-30 20:34N 38°60' W 075°08'1515.5
2015-Jul-30 19:34N 39°13' W 075°18'1717.4
2015-Jul-30 18:33N 39°26' W 075°32'1313.4
2015-Jul-30 17:33N 39°40' W 075°32'3 2.8
2015-Jul-30 16:31N 39°42' W 075°31'0 0.0
2015-Jul-30 15:31N 39°42' W 075°31'0 0.0
2015-Jul-30 14:31N 39°42' W 075°31'0 0.0
2015-Jul-30 13:31N 39°42' W 075°31'0 0.0
2015-Jul-30 12:31N 39°42' W 075°31'0 0.0
2015-Jul-30 11:31N 39°42' W 075°31'0 0.0
2015-Jul-30 10:31N 39°42' W 075°31'0 0.0
2015-Jul-30 09:31N 39°42' W 075°31'0 0.0
2015-Jul-30 08:31N 39°42' W 075°31'0 0.0
2015-Jul-30 07:31N 39°42' W 075°31'0 0.0
2015-Jul-30 06:31N 39°42' W 075°31'0 0.0
2015-Jul-30 05:31N 39°42' W 075°31'0 0.0
2015-Jul-30 04:31N 39°42' W 075°31'0 0.0
2015-Jul-30 03:31N 39°42' W 075°31'0 0.0
2015-Jul-30 02:31N 39°42' W 075°31'0 0.0
2015-Jul-30 01:31N 39°42' W 075°31'0 0.0
2015-Jul-30 00:31N 39°42' W 075°31'0 0.0
2015-Jul-29 23:31N 39°42' W 075°31'0 0.0
2015-Jul-29 22:31N 39°42' W 075°31'0 0.0
2015-Jul-29 21:31N 39°42' W 075°31'0 0.0
2015-Jul-29 20:31N 39°42' W 075°31'0 0.0
2015-Jul-29 19:31N 39°42' W 075°31'0 0.0
2015-Jul-29 18:31N 39°42' W 075°31'0 0.0
2015-Jul-29 17:31N 39°42' W 075°31'0 0.0
2015-Jul-29 16:31N 39°42' W 075°31'0 0.0
2015-Jul-29 15:31N 39°42' W 075°31'0 0.0
2015-Jul-29 14:31N 39°42' W 075°31'0 0.0
2015-Jul-29 13:31N 39°42' W 075°31'0 0.0
2015-Jul-29 12:31N 39°42' W 075°31'0 0.0
2015-Jul-29 11:31N 39°42' W 075°31'0 0.0
2015-Jul-29 10:31N 39°42' W 075°31'0 0.0
2015-Jul-29 09:31N 39°42' W 075°31'0 0.0
2015-Jul-29 08:31N 39°42' W 075°31'0 0.0
2015-Jul-29 07:31N 39°42' W 075°31'0 0.0
2015-Jul-29 06:31N 39°42' W 075°31'0 0.0
2015-Jul-29 05:31N 39°42' W 075°31'0 0.0
2015-Jul-29 04:31N 39°42' W 075°31'0 0.0
2015-Jul-29 03:31N 39°42' W 075°31'0 0.0
2015-Jul-29 02:31N 39°42' W 075°31'0 0.0
2015-Jul-29 01:31N 39°42' W 075°31'0 0.0
2015-Jul-29 00:31N 39°42' W 075°31'0 0.0
2015-Jul-28 23:31N 39°42' W 075°31'0 0.0
2015-Jul-28 22:33N 39°42' W 075°31'7 7.5
2015-Jul-28 21:34N 39°48' W 075°25'1110.9
2015-Jul-28 20:33N 39°53' W 075°12'3 3.1
2015-Jul-28 19:31N 39°54' W 075°08'0 0.0
2015-Jul-28 18:31N 39°54' W 075°08'0 0.0
2015-Jul-28 17:31N 39°54' W 075°08'0 0.0
2015-Jul-28 16:31N 39°54' W 075°08'0 0.0
2015-Jul-28 15:31N 39°54' W 075°08'0 0.0
2015-Jul-28 14:31N 39°54' W 075°08'0 0.0
2015-Jul-28 13:31N 39°54' W 075°08'0 0.0
2015-Jul-28 12:31N 39°54' W 075°08'0 0.0
2015-Jul-28 11:31N 39°54' W 075°08'0 0.1
2015-Jul-28 10:34N 39°54' W 075°08'4 4.1
2015-Jul-28 09:34N 39°52' W 075°13'1010.1
2015-Jul-28 08:34N 39°48' W 075°25'1111.2
2015-Jul-28 07:34N 39°39' W 075°33'1211.8
2015-Jul-28 06:34N 39°27' W 075°33'1312.7
2015-Jul-28 05:34N 39°18' W 075°23'1313.2
2015-Jul-28 04:34N 39°07' W 075°13'1413.7
2015-Jul-28 03:33N 38°55' W 075°05'1010.5
2015-Jul-28 02:33N 38°46' W 074°58'1110.3
2015-Jul-28 01:31N 38°38' W 074°49'1010.3
2015-Jul-28 00:34N 38°30' W 074°41'3 0.4
2015-Jul-27 17:12N 38°30' W 074°38'0 0.0
2015-Jul-27 14:30N 38°30' W 074°38'0 0.0
2015-Jul-27 13:33N 38°30' W 074°38'0 0.0
2015-Jul-27 08:33N 38°30' W 074°38'0 0.0
2015-Jul-27 07:33N 38°30' W 074°38'0 0.0
2015-Jul-27 06:33N 38°30' W 074°38'0 0.0
2015-Jul-27 05:33N 38°30' W 074°38'0 0.0
2015-Jul-27 04:33N 38°30' W 074°38'0 0.0
2015-Jul-27 03:33N 38°30' W 074°38'0 0.0
2015-Jul-27 02:33N 38°30' W 074°38'0 0.0
2015-Jul-27 01:30N 38°30' W 074°38'0 0.0
2015-Jul-27 00:33N 38°30' W 074°38'0 0.0
2015-Jul-26 23:33N 38°30' W 074°38'0 0.0
2015-Jul-26 22:24N 38°30' W 074°38'0 0.1
2015-Jul-26 21:33N 38°30' W 074°38'0 0.0
2015-Jul-26 20:33N 38°30' W 074°38'0 0.0
2015-Jul-26 19:33N 38°30' W 074°38'0 0.0
2015-Jul-26 18:33N 38°30' W 074°38'0 0.0
2015-Jul-26 17:18N 38°30' W 074°38'3 3.5
2015-Jul-26 16:27N 38°28' W 074°39'1415.0
2015-Jul-26 15:31N 38°14' W 074°41'1515.1
2015-Jul-26 14:32N 37°59' W 074°44'4116.1
2015-Jul-26 12:00N 37°18' W 074°42'3514.1 190 / 211018.910.8 0.525.020.426.8
2015-Jul-26 09:31N 36°43' W 074°47'5515.7
2015-Jul-26 06:00N 35°48' W 074°48'18515.4 100 / 81018.210.8 1.024.518.227.2
2015-Jul-25 18:00N 33°18' W 077°00'   090 / 101016.8 2.028.919.130.5
Track history (hours):
 
Tides and Currents Weather Stations Pressure Air Temp Water Temp Dewpoint Dewpoint Depression Visibility Wind Speed Wind Dir Waves Ship Positions

Liberty Pride

Owner: Liberty Pride Corporation, Lake Success, NY. More information available from US FCC via Universal Licensing System and Coast Guard Vessel Documentation Center.

Last reported at 2015-Aug-01 21:34 UTC. Time now 2015-Aug-01 22:19 UTC.
Position N 40°54' W 071°35'.

Length 200 m; draft 9.3 m.

Type: Cargo ship. MMSI: 368473000.

Date/timePositionNaut miles runAvg speedWind from/ knotsBaromVisibWave heightAir tempDewpointWater temp
2015-Aug-01 21:34N 40°54' W 071°35'1515.1
2015-Aug-01 20:34N 41°07' W 071°27'1514.9
2015-Aug-01 19:34N 41°22' W 071°25'1111.4
2015-Aug-01 18:33N 41°33' W 071°20'1212.1
2015-Aug-01 17:33N 41°45' W 071°22'3 2.6
2015-Aug-01 16:31N 41°47' W 071°23'0 0.0
2015-Aug-01 15:28N 41°47' W 071°23'0 0.0
2015-Aug-01 14:31N 41°47' W 071°23'0 0.0
2015-Aug-01 13:25N 41°47' W 071°23'0 0.0
2015-Aug-01 12:31N 41°47' W 071°23'0 0.0
2015-Aug-01 11:31N 41°47' W 071°23'0 0.0
2015-Aug-01 10:31N 41°47' W 071°23'2 2.4
2015-Aug-01 09:33N 41°45' W 071°22'10 9.5
2015-Aug-01 08:33N 41°36' W 071°18'1212.4
2015-Aug-01 07:33N 41°24' W 071°22'9 9.4
2015-Aug-01 06:33N 41°15' W 071°22'1111.2
2015-Aug-01 05:33N 41°04' W 071°23'1010.4
2015-Aug-01 04:33N 40°56' W 071°32'1211.6
2015-Aug-01 03:33N 40°51' W 071°46'1212.1
2015-Aug-01 02:33N 40°46' W 072°00'1212.4
2015-Aug-01 01:33N 40°40' W 072°15'1212.2
2015-Aug-01 00:33N 40°35' W 072°29'1212.4
2015-Jul-31 23:33N 40°29' W 072°44'1212.2
2015-Jul-31 22:33N 40°24' W 072°58'1313.3
2015-Jul-31 21:33N 40°24' W 073°16'1515.4
2015-Jul-31 20:33N 40°25' W 073°36'1313.3
2015-Jul-31 19:33N 40°29' W 073°53'1313.0
2015-Jul-31 18:33N 40°39' W 074°04'4 4.0
2015-Jul-31 17:32N 40°41' W 074°08'0 0.3
2015-Jul-31 16:32N 40°41' W 074°08'0 0.0
2015-Jul-31 15:32N 40°41' W 074°08'0 0.0
2015-Jul-31 14:32N 40°41' W 074°08'0 0.0
2015-Jul-31 13:32N 40°41' W 074°08'0 0.0
2015-Jul-31 12:32N 40°41' W 074°08'0 0.0
2015-Jul-31 11:32N 40°41' W 074°08'0 0.0
2015-Jul-31 10:32N 40°41' W 074°08'1 0.6
2015-Jul-31 09:33N 40°41' W 074°08'4 4.1
2015-Jul-31 08:34N 40°39' W 074°03'1111.1
2015-Jul-31 07:34N 40°29' W 073°55'8 7.9
2015-Jul-31 06:33N 40°25' W 073°47'1413.9
2015-Jul-31 05:33N 40°11' W 073°45'1515.0
2015-Jul-31 04:33N 39°56' W 073°43'1514.8
2015-Jul-31 03:31N 39°41' W 073°42'1515.8
2015-Jul-31 02:33N 39°28' W 073°53'3815.9
2015-Jul-31 00:09N 38°57' W 074°22'1016.2
2015-Jul-30 23:32N 38°50' W 074°30'1414.4
2015-Jul-30 22:33N 38°45' W 074°47'1312.9
2015-Jul-30 21:33N 38°49' W 075°03'1211.6
2015-Jul-30 20:34N 38°60' W 075°08'1515.5
2015-Jul-30 19:34N 39°13' W 075°18'1717.4
2015-Jul-30 18:33N 39°26' W 075°32'1313.4
2015-Jul-30 17:33N 39°40' W 075°32'3 2.8
2015-Jul-30 16:31N 39°42' W 075°31'0 0.0
2015-Jul-30 15:31N 39°42' W 075°31'0 0.0
2015-Jul-30 14:31N 39°42' W 075°31'0 0.0
2015-Jul-30 13:31N 39°42' W 075°31'0 0.0
2015-Jul-30 12:31N 39°42' W 075°31'0 0.0
2015-Jul-30 11:31N 39°42' W 075°31'0 0.0
2015-Jul-30 10:31N 39°42' W 075°31'0 0.0
2015-Jul-30 09:31N 39°42' W 075°31'0 0.0
2015-Jul-30 08:31N 39°42' W 075°31'0 0.0
2015-Jul-30 07:31N 39°42' W 075°31'0 0.0
2015-Jul-30 06:31N 39°42' W 075°31'0 0.0
2015-Jul-30 05:31N 39°42' W 075°31'0 0.0
2015-Jul-30 04:31N 39°42' W 075°31'0 0.0
2015-Jul-30 03:31N 39°42' W 075°31'0 0.0
2015-Jul-30 02:31N 39°42' W 075°31'0 0.0
2015-Jul-30 01:31N 39°42' W 075°31'0 0.0
2015-Jul-30 00:31N 39°42' W 075°31'0 0.0
2015-Jul-29 23:31N 39°42' W 075°31'0 0.0
2015-Jul-29 22:31N 39°42' W 075°31'0 0.0
2015-Jul-29 21:31N 39°42' W 075°31'0 0.0
2015-Jul-29 20:31N 39°42' W 075°31'0 0.0
2015-Jul-29 19:31N 39°42' W 075°31'0 0.0
2015-Jul-29 18:31N 39°42' W 075°31'0 0.0
2015-Jul-29 17:31N 39°42' W 075°31'0 0.0
2015-Jul-29 16:31N 39°42' W 075°31'0 0.0
2015-Jul-29 15:31N 39°42' W 075°31'0 0.0
2015-Jul-29 14:31N 39°42' W 075°31'0 0.0
2015-Jul-29 13:31N 39°42' W 075°31'0 0.0
2015-Jul-29 12:31N 39°42' W 075°31'0 0.0
2015-Jul-29 11:31N 39°42' W 075°31'0 0.0
2015-Jul-29 10:31N 39°42' W 075°31'0 0.0
2015-Jul-29 09:31N 39°42' W 075°31'0 0.0
2015-Jul-29 08:31N 39°42' W 075°31'0 0.0
2015-Jul-29 07:31N 39°42' W 075°31'0 0.0
2015-Jul-29 06:31N 39°42' W 075°31'0 0.0
2015-Jul-29 05:31N 39°42' W 075°31'0 0.0
2015-Jul-29 04:31N 39°42' W 075°31'0 0.0
2015-Jul-29 03:31N 39°42' W 075°31'0 0.0
2015-Jul-29 02:31N 39°42' W 075°31'0 0.0
2015-Jul-29 01:31N 39°42' W 075°31'0 0.0
2015-Jul-29 00:31N 39°42' W 075°31'0 0.0
2015-Jul-28 23:31N 39°42' W 075°31'0 0.0
2015-Jul-28 22:33N 39°42' W 075°31'7 7.5
2015-Jul-28 21:34N 39°48' W 075°25'1110.9
2015-Jul-28 20:33N 39°53' W 075°12'3 3.1
2015-Jul-28 19:31N 39°54' W 075°08'0 0.0
2015-Jul-28 18:31N 39°54' W 075°08'0 0.0
2015-Jul-28 17:31N 39°54' W 075°08'0 0.0
2015-Jul-28 16:31N 39°54' W 075°08'0 0.0
2015-Jul-28 15:31N 39°54' W 075°08'0 0.0
2015-Jul-28 14:31N 39°54' W 075°08'0 0.0
2015-Jul-28 13:31N 39°54' W 075°08'0 0.0
2015-Jul-28 12:31N 39°54' W 075°08'0 0.0
2015-Jul-28 11:31N 39°54' W 075°08'0 0.1
2015-Jul-28 10:34N 39°54' W 075°08'4 4.1
2015-Jul-28 09:34N 39°52' W 075°13'1010.1
2015-Jul-28 08:34N 39°48' W 075°25'1111.2
2015-Jul-28 07:34N 39°39' W 075°33'1211.8
2015-Jul-28 06:34N 39°27' W 075°33'1312.7
2015-Jul-28 05:34N 39°18' W 075°23'1313.2
2015-Jul-28 04:34N 39°07' W 075°13'1413.7
2015-Jul-28 03:33N 38°55' W 075°05'1010.5
2015-Jul-28 02:33N 38°46' W 074°58'1110.3
2015-Jul-28 01:31N 38°38' W 074°49'1010.3
2015-Jul-28 00:34N 38°30' W 074°41'3 0.4
2015-Jul-27 17:12N 38°30' W 074°38'0 0.0
2015-Jul-27 14:30N 38°30' W 074°38'0 0.0
2015-Jul-27 13:33N 38°30' W 074°38'0 0.0
2015-Jul-27 08:33N 38°30' W 074°38'0 0.0
2015-Jul-27 07:33N 38°30' W 074°38'0 0.0
2015-Jul-27 06:33N 38°30' W 074°38'0 0.0
2015-Jul-27 05:33N 38°30' W 074°38'0 0.0
2015-Jul-27 04:33N 38°30' W 074°38'0 0.0
2015-Jul-27 03:33N 38°30' W 074°38'0 0.0
2015-Jul-27 02:33N 38°30' W 074°38'0 0.0
2015-Jul-27 01:30N 38°30' W 074°38'0 0.0
2015-Jul-27 00:33N 38°30' W 074°38'0 0.0
2015-Jul-26 23:33N 38°30' W 074°38'0 0.0
2015-Jul-26 22:24N 38°30' W 074°38'0 0.1
2015-Jul-26 21:33N 38°30' W 074°38'0 0.0
2015-Jul-26 20:33N 38°30' W 074°38'0 0.0
2015-Jul-26 19:33N 38°30' W 074°38'0 0.0
2015-Jul-26 18:33N 38°30' W 074°38'0 0.0
2015-Jul-26 17:18N 38°30' W 074°38'3 3.5
2015-Jul-26 16:27N 38°28' W 074°39'1415.0
2015-Jul-26 15:31N 38°14' W 074°41'1515.1
2015-Jul-26 14:32N 37°59' W 074°44'4116.1
2015-Jul-26 12:00N 37°18' W 074°42'3514.1 190 / 211018.910.8 0.525.020.426.8
2015-Jul-26 09:31N 36°43' W 074°47'5515.7
2015-Jul-26 06:00N 35°48' W 074°48'18515.4 100 / 81018.210.8 1.024.518.227.2
2015-Jul-25 18:00N 33°18' W 077°00'   090 / 101016.8 2.028.919.130.5

Dump ship's entire track history